| time (UTC) | temp F | wind direction | speed knots | gust knots | rain 1hr in | rain 24hr in | rain mn in | humidity % | barometer mb |
| 20260507081552 | 79 | 113 | 0.0 | 4.3 | 0.00 | 0.00 | 0.00 | 84 | 1017.8 |
| 20260507080114 | 79 | 90 | 1.7 | 6.1 | 0.00 | 0.00 | 0.00 | 83 | 1017.7 |
| 20260507074557 | 79 | 117 | 3.5 | 7.0 | 0.00 | 0.00 | 0.00 | 83 | 1017.7 |
| 20260507073058 | 79 | 175 | 0.0 | 6.1 | 0.00 | 0.00 | 0.00 | 83 | 1017.7 |
| 20260507071600 | 79 | 188 | 2.6 | 7.0 | 0.00 | 0.00 | 0.00 | 83 | 1017.8 |
| 20260507070048 | 79 | 102 | 0.0 | 3.5 | 0.00 | 0.00 | 0.00 | 83 | 1017.9 |
| 20260507064551 | 79 | 128 | 0.0 | 3.5 | 0.00 | 0.00 | 0.00 | 83 | 1018.0 |
| 20260507063043 | 79 | 140 | 0.0 | 4.3 | 0.00 | 0.00 | 0.00 | 83 | 1018.2 |
| 20260507061543 | 79 | 206 | 0.9 | 5.2 | 0.00 | 0.00 | 0.00 | 83 | 1018.3 |
| 20260507060040 | 79 | 203 | 0.0 | 7.0 | 0.00 | 0.00 | 0.00 | 83 | 1018.6 |
| 20260507054548 | 79 | 86 | 0.9 | 5.2 | 0.00 | 0.00 | 0.00 | 83 | 1018.9 |
| 20260507053045 | 79 | 46 | 1.7 | 7.8 | 0.00 | 0.00 | 0.00 | 83 | 1018.8 |
| 20260507051537 | 80 | 101 | 0.9 | 7.0 | 0.00 | 0.00 | 0.00 | 83 | 1018.9 |
| 20260507050035 | 80 | 94 | 0.0 | 12.2 | 0.00 | 0.00 | 0.00 | 83 | 1019.2 |
| 20260507044533 | 80 | 82 | 1.7 | 8.7 | 0.00 | 0.00 | 0.00 | 82 | 1019.4 |
| 20260507043035 | 80 | 86 | 6.1 | 9.6 | 0.00 | 0.00 | 0.00 | 82 | 1019.6 |
| 20260507041526 | 80 | 67 | 4.3 | 11.3 | 0.00 | 0.00 | 0.00 | 82 | 1019.8 |
| 20260507040023 | 80 | 80 | 2.6 | 13.0 | 0.00 | 0.00 | 0.00 | 82 | 1019.8 |
| 20260507034521 | 81 | 66 | 3.5 | 12.2 | 0.00 | 0.00 | 0.00 | 82 | 1019.9 |
| 20260507033021 | 81 | 132 | 0.9 | 7.0 | 0.00 | 0.00 | 0.00 | 82 | 1020.1 |
| 20260507031520 | 81 | 186 | 0.9 | 8.7 | 0.00 | 0.00 | 0.00 | 81 | 1020.3 |
| 20260507030020 | 81 | 103 | 0.0 | 11.3 | 0.00 | 0.00 | 0.00 | 82 | 1020.4 |
| 20260507024518 | 81 | 87 | 2.6 | 11.3 | 0.00 | 0.00 | 0.00 | 81 | 1020.4 |
| 20260507023017 | 81 | 71 | 5.2 | 11.3 | 0.00 | 0.00 | 0.00 | 82 | 1020.4 |
| 20260507021517 | 81 | 69 | 7.8 | 13.0 | 0.00 | 0.00 | 0.00 | 82 | 1020.4 |
| 20260507020016 | 81 | 81 | 2.6 | 13.0 | 0.00 | 0.00 | 0.00 | 81 | 1020.3 |
| 20260507014517 | 81 | 80 | 3.5 | 13.0 | 0.00 | 0.00 | 0.00 | 81 | 1020.3 |
| 20260507013014 | 81 | 72 | 6.1 | 13.9 | 0.00 | 0.00 | 0.00 | 81 | 1020.1 |
| 20260507011527 | 81 | 63 | 7.0 | 12.2 | 0.00 | 0.00 | 0.00 | 81 | 1020.1 |
| 20260507010014 | 82 | 61 | 6.1 | 13.0 | 0.00 | 0.00 | 0.00 | 81 | 1019.9 |
| 20260507004612 | 82 | 83 | 2.6 | 8.7 | 0.00 | 0.00 | 0.00 | 81 | 1019.6 |
| 20260507003017 | 81 | 96 | 1.7 | 7.8 | 0.00 | 0.00 | 0.00 | 81 | 1019.6 |
| 20260507001511 | 81 | 143 | 0.9 | 7.8 | 0.00 | 0.00 | 0.00 | 81 | 1019.4 |
| 20260507000010 | 81 | 111 | 0.0 | 8.7 | 0.00 | 0.00 | 0.00 | 80 | 1019.3 |
| 20260506234511 | 81 | 121 | 0.9 | 7.8 | 0.00 | 0.00 | 0.00 | 80 | 1019.1 |
| 20260506233012 | 81 | 144 | 1.7 | 7.8 | 0.00 | 0.00 | 0.00 | 80 | 1018.8 |
| 20260506231509 | 82 | 129 | 2.6 | 8.7 | 0.00 | 0.00 | 0.00 | 80 | 1018.6 |
| 20260506230008 | 82 | 84 | 1.7 | 6.1 | 0.00 | 0.00 | 0.00 | 79 | 1018.6 |
| 20260506224512 | 82 | 137 | 1.7 | 9.6 | 0.00 | 0.00 | 0.00 | 79 | 1018.4 |
| 20260506223007 | 82 | 82 | 0.9 | 8.7 | 0.00 | 0.00 | 0.00 | 78 | 1018.3 |
| 20260506221506 | 82 | 142 | 0.9 | 9.6 | 0.00 | 0.00 | 0.00 | 78 | 1018.1 |
| 20260506220005 | 82 | 142 | 1.7 | 4.3 | 0.00 | 0.00 | 0.00 | 77 | 1017.9 |
| 20260506214504 | 83 | 65 | 0.0 | 8.7 | 0.00 | 0.00 | 0.00 | 76 | 1017.9 |
| 20260506213004 | 84 | 101 | 0.0 | 7.8 | 0.00 | 0.00 | 0.00 | 74 | 1017.7 |
| 20260506211503 | 86 | 73 | 1.7 | 8.7 | 0.00 | 0.00 | 0.00 | 73 | 1017.6 |
| 20260506210004 | 87 | 72 | 3.5 | 13.0 | 0.00 | 0.00 | 0.00 | 72 | 1017.6 |
| 20260506204504 | 87 | 94 | 3.5 | 13.9 | 0.00 | 0.00 | 0.00 | 74 | 1017.4 |
| 20260506203003 | 88 | 62 | 6.1 | 11.3 | 0.00 | 0.00 | 0.00 | 71 | 1017.4 |
| 20260506201503 | 90 | 70 | 6.1 | 13.0 | 0.00 | 0.00 | 0.00 | 70 | 1017.5 |
| 20260506200059 | 90 | 63 | 4.3 | 14.8 | 0.00 | 0.00 | 0.00 | 68 | 1017.6 |
| 20260506194558 | 91 | 76 | 7.8 | 12.2 | 0.00 | 0.00 | 0.00 | 68 | 1017.8 |
| 20260506193057 | 90 | 76 | 7.0 | 13.0 | 0.00 | 0.00 | 0.00 | 70 | 1017.9 |
| 20260506191559 | 89 | 77 | 8.7 | 12.2 | 0.00 | 0.00 | 0.00 | 70 | 1018.1 |
| 20260506190057 | 86 | 59 | 7.8 | 13.9 | 0.00 | 0.00 | 0.00 | 74 | 1018.2 |
| 20260506184559 | 88 | 76 | 7.0 | 13.9 | 0.00 | 0.00 | 0.00 | 72 | 1018.4 |
| 20260506183058 | 90 | 74 | 7.8 | 11.3 | 0.00 | 0.00 | 0.00 | 70 | 1018.8 |
| 20260506181556 | 86 | 69 | 8.7 | 11.3 | 0.00 | 0.00 | 0.00 | 73 | 1019.0 |
| 20260506180053 | 88 | 63 | 7.8 | 11.3 | 0.00 | 0.00 | 0.00 | 73 | 1019.1 |
| 20260506174605 | 89 | 76 | 7.0 | 11.3 | 0.00 | 0.00 | 0.00 | 72 | 1019.2 |
| 20260506173055 | 90 | 69 | 7.8 | 11.3 | 0.00 | 0.00 | 0.00 | 70 | 1019.4 |
| 20260506171547 | 93 | 66 | 7.0 | 10.4 | 0.00 | 0.00 | 0.00 | 66 | 1019.6 |
| 20260506170043 | 92 | 73 | 7.0 | 11.3 | 0.00 | 0.00 | 0.00 | 69 | 1019.8 |
| 20260506164547 | 92 | 72 | 7.8 | 13.0 | 0.00 | 0.00 | 0.00 | 67 | 1020.0 |
| 20260506163055 | 91 | 74 | 6.1 | 14.8 | 0.00 | 0.00 | 0.00 | 68 | 1020.1 |
| 20260506161539 | 91 | 55 | 7.8 | 14.8 | 0.00 | 0.00 | 0.00 | 68 | 1020.2 |
| 20260506160036 | 91 | 67 | 8.7 | 13.0 | 0.00 | 0.00 | 0.00 | 70 | 1020.3 |
| 20260506154538 | 87 | 74 | 8.7 | 11.3 | 0.00 | 0.00 | 0.00 | 75 | 1020.5 |
| 20260506153034 | 86 | 74 | 7.0 | 10.4 | 0.00 | 0.00 | 0.00 | 77 | 1020.6 |
| 20260506151539 | 86 | 76 | 7.0 | 9.6 | 0.00 | 0.00 | 0.00 | 75 | 1020.7 |
| 20260506150032 | 88 | 61 | 7.0 | 10.4 | 0.00 | 0.00 | 0.00 | 72 | 1020.8 |
| 20260506144530 | 90 | 76 | 7.8 | 11.3 | 0.00 | 0.01 | 0.00 | 71 | 1020.8 |
| 20260506143028 | 87 | 69 | 6.1 | 13.0 | 0.00 | 0.01 | 0.00 | 73 | 1020.6 |
| 20260506141527 | 88 | 57 | 3.5 | 14.8 | 0.00 | 0.01 | 0.00 | 71 | 1020.6 |
| 20260506140029 | 89 | 69 | 7.0 | 14.8 | 0.00 | 0.01 | 0.00 | 70 | 1020.6 |
| 20260506134523 | 88 | 60 | 8.7 | 15.6 | 0.00 | 0.01 | 0.00 | 71 | 1020.7 |
| 20260506133023 | 88 | 196 | 4.3 | 16.5 | 0.00 | 0.01 | 0.00 | 73 | 1020.6 |
| 20260506131521 | 86 | 92 | 5.2 | 11.3 | 0.00 | 0.01 | 0.00 | 76 | 1020.6 |
| 20260506130016 | 85 | 92 | 7.0 | 11.3 | 0.00 | 0.01 | 0.00 | 77 | 1020.5 |
| 20260506124514 | 85 | 138 | 3.5 | 12.2 | 0.00 | 0.01 | 0.00 | 78 | 1020.6 |
| 20260506123011 | 84 | 80 | 2.6 | 7.8 | 0.00 | 0.01 | 0.00 | 78 | 1020.5 |
| 20260506121508 | 83 | 111 | 3.5 | 11.3 | 0.00 | 0.01 | 0.00 | 79 | 1020.4 |
| 20260506120010 | 82 | 204 | 0.9 | 9.6 | 0.00 | 0.01 | 0.00 | 80 | 1020.1 |
| 20260506114504 | 82 | 100 | 3.5 | 7.0 | 0.00 | 0.01 | 0.00 | 80 | 1020.0 |
| 20260506113001 | 82 | 225 | 1.7 | 11.3 | 0.00 | 0.01 | 0.00 | 81 | 1019.9 |
| 20260506111600 | 81 | 54 | 3.5 | 11.3 | 0.00 | 0.01 | 0.00 | 81 | 1019.8 |
| 20260506110103 | 81 | 65 | 4.3 | 13.9 | 0.00 | 0.01 | 0.00 | 82 | 1019.7 |
| 20260506104601 | 80 | 63 | 6.1 | 10.4 | 0.00 | 0.01 | 0.00 | 83 | 1019.5 |
| 20260506103056 | 80 | 70 | 2.6 | 12.2 | 0.00 | 0.01 | 0.00 | 83 | 1019.4 |
| 20260506101608 | 79 | 89 | 1.7 | 8.7 | 0.00 | 0.01 | 0.00 | 83 | 1019.2 |
| 20260506100049 | 79 | 152 | 0.0 | 7.8 | 0.00 | 0.01 | 0.00 | 83 | 1019.3 |
| 20260506094550 | 79 | 132 | 0.9 | 7.0 | 0.00 | 0.01 | 0.00 | 82 | 1019.3 |
| 20260506093046 | 79 | 102 | 0.0 | 6.1 | 0.00 | 0.01 | 0.00 | 83 | 1019.2 |
| 20260506091545 | 79 | 78 | 5.2 | 12.2 | 0.00 | 0.01 | 0.00 | 83 | 1019.2 |
| 20260506090056 | 79 | 65 | 2.6 | 8.7 | 0.00 | 0.01 | 0.00 | 83 | 1018.9 |
| 20260506084551 | 79 | 185 | 0.0 | 3.5 | 0.00 | 0.01 | 0.00 | 83 | 1018.8 |
| 20260506083043 | 79 | 84 | 3.5 | 9.6 | 0.00 | 0.01 | 0.00 | 83 | 1018.8 |